Meteo Giornale » Osservazioni meteo Russia » Yuzhno-Sakhalinsk
ore: 14:30 - Osservazioni Meteo Yuzhno-Sakhalinsk
Lat. 46° 57' N Lon. 142° 43' E Alt. 31 metri s.l.m.
21 °C
Sereno
Temp. 24 Ore
4 °C
24 °C
Sud/Sud-Ovest
18 Km/h
Dew point 13 °C
Umidità 60 %
Visibilità 10 Km
Il sole sorge alle ore 06:48
Il sole tramonta alle ore 20:10
| Data e Ora | Cielo e Fenomeni | T °C | DP °C | Um. % | Pres. hPa | Vis. km | Vento km/h | |
|---|---|---|---|---|---|---|---|---|
| Oggi h: 14:30 | Sereno | 21 | 13 | 60 | 1022 | 10 | S/SO 18 | |
| Oggi h: 14:00 | Sereno | 21 | 12 | 56 | 1022 | 10 | S/SO 18 | |
| Oggi h: 13:30 | Sereno | 21 | 11 | 52 | 1022 | 10 | S/SO 14.4 | |
| Oggi h: 13:00 | Sereno | 21 | 11 | 52 | 1023 | 10 | N 7.2 | |
| Oggi h: 12:30 | Sereno | 20 | 11 | 56 | 1023 | 10 | N 7.2 | |
| Oggi h: 12:00 | Sereno | 20 | 12 | 59 | 1023 | 10 | N 7.2 | |
| Oggi h: 11:30 | Sereno | 18 | 11 | 63 | 1023 | 10 | N 7.2 | |
| Oggi h: 11:00 | Sereno | 18 | 12 | 67 | 1023 | 10 | N 7.2 | |
| Oggi h: 10:30 | Sereno | 16 | 10 | 67 | 1024 | 10 | N 3.6 | |
| Oggi h: 10:00 | Sereno | 15 | 11 | 76 | 1024 | 10 | N 3.6 | |
| Oggi h: 09:30 | Sereno | 13 | 10 | 81 | 1024 | 10 | N 7.2 | |
| Oggi h: 09:00 | Sereno | 11 | 10 | 93 | 1024 | 10 | N 7.2 | |
| Oggi h: 08:30 | Sereno | 10 | 9 | 93 | 1024 | 10 | N 7.2 | |
| Oggi h: 08:00 | Sereno | 8 | 8 | 100 | 1024 | 10 | N 3.6 | |
| Oggi h: 07:30 | Sereno | 5 | 4 | 93 | 1024 | 10 | N 3.6 | |
| Oggi h: 07:00 | Sereno | 4 | 4 | 100 | 1024 | 10 | N 3.6 | |
| Oggi h: 06:30 | Foschia | 5 | 4 | 93 | 1024 | 3 | N 0 | |
| Oggi h: 06:24 | Nuvoloso | 5 | 4 | 93 | 1024 | 10 | N 3.6 | |
| Oggi h: 06:09 | Nebbia | 5 | 4 | 93 | 1023 | 0.25 | N 3.6 | |
| Oggi h: 06:00 | Nebbia | 5 | 5 | 100 | 1023 | 0.65 | N 3.6 | |
| Oggi h: 05:30 | Foschia | 5 | 5 | 100 | 1023 | 1 | N 3.6 | |
| Oggi h: 05:00 | Sereno | 6 | 5 | 93 | 1023 | 10 | N 3.6 | |
| Oggi h: 04:00 | Sereno | 7 | 7 | 100 | 1023 | 10 | N 7.2 | |
| Oggi h: 03:00 | Nuvoloso | 8 | 7 | 93 | 1023 | 10 | N 7.2 | |
| Oggi h: 02:00 | Nuvoloso | 10 | 9 | 93 | 1023 | 10 | N 7.2 | |
| Oggi h: 01:00 | Nuvoloso | 9 | 8 | 93 | 1023 | 10 | N 7.2 | |
| Oggi h: 00:00 | Nuvoloso | 10 | 9 | 93 | 1022 | 10 | N 3.6 | |
| Ieri h: 23:30 | Nuvoloso | 11 | 10 | 93 | 1022 | 10 | N 3.6 | |
| Ieri h: 23:00 | Nuvoloso | 13 | 11 | 87 | 1022 | 10 | N 7.2 | |
| Ieri h: 22:30 | Nuvoloso | 13 | 11 | 87 | 1022 | 10 | N 7.2 | |
| Ieri h: 22:00 | Nuvoloso | 13 | 12 | 93 | 1022 | 10 | N 7.2 | |
| Ieri h: 21:30 | Nuvoloso | 14 | 12 | 87 | 1022 | 10 | N 7.2 | |
| Ieri h: 21:00 | Nuvoloso | 15 | 12 | 82 | 1021 | 10 | E/SE 10.8 | |
| Ieri h: 20:30 | Nuvoloso | 15 | 13 | 87 | 1021 | 10 | E/SE 10.8 | |
| Ieri h: 20:00 | Nuvoloso | 16 | 13 | 82 | 1020 | 10 | S/SE 10.8 | |
| Ieri h: 19:30 | Sereno | 17 | 13 | 77 | 1020 | 10 | N 7.2 | |
| Ieri h: 19:00 | Sereno | 18 | 9 | 55 | 1020 | 10 | S/SO 14.4 | |
| Ieri h: 18:30 | Sereno | 19 | 9 | 52 | 1020 | 10 | S/SO 18 | |
| Ieri h: 18:00 | Sereno | 20 | 9 | 49 | 1019 | 10 | S/SO 18 | |
| Ieri h: 17:30 | Sereno | 21 | 9 | 46 | 1019 | 10 | S 18 | |
| Ieri h: 17:00 | Sereno | 22 | 9 | 43 | 1019 | 10 | S/SO 21.6 | |
| Ieri h: 16:30 | Sereno | 21 | 7 | 40 | 1019 | 10 | S 21.6 | |
| Ieri h: 16:00 | Sereno | 22 | 8 | 40 | 1018 | 10 | S/SO 21.6 | |
| Ieri h: 15:30 | Sereno | 23 | 9 | 40 | 1018 | 10 | S 18 | |
| Ieri h: 15:17 | Sereno | 24 | 11 | 43 | 1018 | 10 | S/SO 18 | |
| Ieri h: 15:00 | Sereno | 24 | 10 | 41 | 1018 | 10 | O/NO 10.8 | |



